createdAt,value
2022-09-10T00:02:26.827Z,15.68
2022-09-10T00:08:34.785Z,15.73
2022-09-10T00:11:07.048Z,15.71
2022-09-10T00:13:44.032Z,15.69
2022-09-10T00:16:16.709Z,15.70
2022-09-10T00:18:52.294Z,15.69
2022-09-10T00:22:01.340Z,15.64
2022-09-10T00:24:45.792Z,15.58
2022-09-10T00:27:29.286Z,15.62
2022-09-10T00:29:56.462Z,15.43
2022-09-10T00:32:53.015Z,15.45
2022-09-10T00:35:21.643Z,15.42
2022-09-10T00:38:22.543Z,15.53
2022-09-10T00:40:50.649Z,15.49
2022-09-10T00:44:00.158Z,15.45
2022-09-10T00:47:02.156Z,15.48
2022-09-10T00:53:15.970Z,15.05
2022-09-10T00:56:02.888Z,14.88
2022-09-10T00:58:35.992Z,15.04
2022-09-10T01:01:04.360Z,15.21
2022-09-10T01:03:35.937Z,15.27
2022-09-10T01:06:35.095Z,15.31
2022-09-10T01:09:09.965Z,15.32
2022-09-10T01:12:16.253Z,15.34
2022-09-10T01:15:24.930Z,15.37
2022-09-10T01:18:19.728Z,15.45
2022-09-10T01:20:59.692Z,15.42
2022-09-10T01:23:58.635Z,15.38
2022-09-10T01:27:03.020Z,15.42
2022-09-10T01:29:50.227Z,15.37
2022-09-10T01:32:34.067Z,15.39
2022-09-10T01:35:21.379Z,15.30
2022-09-10T01:38:04.970Z,15.37
2022-09-10T01:41:19.621Z,15.37
2022-09-10T01:44:42.602Z,15.32
2022-09-10T01:47:28.124Z,15.27
2022-09-10T01:50:15.233Z,15.31
2022-09-10T01:52:45.250Z,15.28
2022-09-10T01:55:35.251Z,15.31
2022-09-10T01:58:13.575Z,15.18
2022-09-10T02:01:08.894Z,15.15
2022-09-10T02:03:38.854Z,15.17
2022-09-10T02:06:09.777Z,14.97
2022-09-10T02:08:41.293Z,15.07
2022-09-10T02:11:19.566Z,15.08
2022-09-10T02:14:24.687Z,15.09
2022-09-10T02:17:31.452Z,15.14
2022-09-10T02:20:10.056Z,15.15
2022-09-10T02:22:59.098Z,15.15
2022-09-10T02:25:45.890Z,15.13
2022-09-10T02:28:43.997Z,15.14
2022-09-10T02:31:10.995Z,15.17
2022-09-10T02:33:40.105Z,15.30
2022-09-10T02:36:31.982Z,15.36
2022-09-10T02:39:12.918Z,15.24
2022-09-10T02:41:42.981Z,15.20
2022-09-10T02:44:30.103Z,15.20
2022-09-10T02:47:10.661Z,15.21
2022-09-10T02:50:02.492Z,15.26
2022-09-10T02:52:36.283Z,15.38
2022-09-10T02:58:49.208Z,15.33
2022-09-10T03:01:24.751Z,15.14
2022-09-10T03:03:59.792Z,15.09
2022-09-10T03:06:57.045Z,15.00
2022-09-10T03:09:33.019Z,15.05
2022-09-10T03:12:16.144Z,15.04
2022-09-10T03:18:32.895Z,14.89
2022-09-10T03:21:15.459Z,14.70
2022-09-10T03:23:56.954Z,14.60
2022-09-10T03:26:33.910Z,14.66
2022-09-10T03:29:01.876Z,14.68
2022-09-10T03:32:01.492Z,14.76
2022-09-10T03:35:27.703Z,14.86
2022-09-10T03:38:11.631Z,14.89
2022-09-10T03:40:39.818Z,14.82
2022-09-10T03:43:13.413Z,14.89
2022-09-10T03:45:44.028Z,14.95
2022-09-10T03:48:23.637Z,14.90
2022-09-10T03:51:39.310Z,14.74
2022-09-10T03:54:23.567Z,14.74
2022-09-10T03:57:03.482Z,14.80
2022-09-10T03:59:42.907Z,14.81
2022-09-10T04:02:17.555Z,14.79
2022-09-10T04:05:25.909Z,14.73
2022-09-10T04:08:02.889Z,14.70
2022-09-10T04:10:40.933Z,14.72
2022-09-10T04:13:14.391Z,14.66
2022-09-10T04:15:54.352Z,14.50
2022-09-10T04:18:38.675Z,14.52
2022-09-10T04:21:10.137Z,14.49
2022-09-10T04:23:37.308Z,14.49
2022-09-10T04:26:42.969Z,14.52
2022-09-10T04:29:19.330Z,14.50
2022-09-10T04:31:51.173Z,14.55
2022-09-10T04:34:27.329Z,14.55
2022-09-10T04:37:19.622Z,14.51
2022-09-10T04:40:05.598Z,14.55
2022-09-10T04:42:33.777Z,14.59
2022-09-10T04:45:09.970Z,14.60
2022-09-10T04:48:24.345Z,14.62
2022-09-10T04:51:24.324Z,14.68
2022-09-10T04:54:13.821Z,14.75
2022-09-10T04:56:50.004Z,14.81
2022-09-10T04:59:25.367Z,14.81
2022-09-10T05:01:58.154Z,14.84
2022-09-10T05:04:26.174Z,14.81
2022-09-10T05:07:06.564Z,14.78
2022-09-10T05:09:34.154Z,14.77
2022-09-10T05:12:03.811Z,14.78
2022-09-10T05:15:10.225Z,14.73
2022-09-10T05:18:08.301Z,14.86
2022-09-10T05:21:13.243Z,14.86
2022-09-10T05:23:49.427Z,14.90
2022-09-10T05:26:24.890Z,14.92
2022-09-10T05:29:00.426Z,14.90
2022-09-10T05:31:37.830Z,15.07
2022-09-10T05:34:05.857Z,15.06
2022-09-10T05:36:33.109Z,15.17
2022-09-10T05:39:00.977Z,15.22
2022-09-10T05:41:30.484Z,15.34
2022-09-10T05:43:57.989Z,15.31
2022-09-10T05:46:25.386Z,15.33
2022-09-10T05:48:55.512Z,15.46
2022-09-10T05:51:46.798Z,15.53
2022-09-10T05:54:13.822Z,15.53
2022-09-10T05:56:41.948Z,15.56
2022-09-10T05:59:24.215Z,15.64
2022-09-10T06:01:58.633Z,15.69
2022-09-10T06:04:27.421Z,15.65
2022-09-10T06:06:54.564Z,15.64
2022-09-10T06:09:27.769Z,15.68
2022-09-10T06:11:55.915Z,15.79
2022-09-10T06:14:23.210Z,15.87
2022-09-10T06:16:50.213Z,15.92
2022-09-10T06:19:18.483Z,16.03
2022-09-10T06:21:47.070Z,16.15
2022-09-10T06:24:15.398Z,16.27
2022-09-10T06:26:47.982Z,16.37
2022-09-10T06:29:15.291Z,16.46
2022-09-10T06:31:43.295Z,16.54
2022-09-10T06:34:10.774Z,16.51
2022-09-10T06:36:48.036Z,16.34
2022-09-10T06:39:20.406Z,16.48
2022-09-10T06:41:49.733Z,16.60
2022-09-10T06:44:22.612Z,16.63
2022-09-10T06:47:32.442Z,16.70
2022-09-10T06:49:43.820Z,16.67
2022-09-10T06:52:19.152Z,16.62
2022-09-10T06:54:51.683Z,16.52
2022-09-10T06:57:19.896Z,16.43
2022-09-10T06:59:49.052Z,16.59
2022-09-10T07:02:18.298Z,16.68
2022-09-10T07:04:45.728Z,16.69
2022-09-10T07:07:20.452Z,16.63
2022-09-10T07:09:48.406Z,16.72
2022-09-10T07:12:15.533Z,16.76
2022-09-10T07:14:43.384Z,16.78
2022-09-10T07:17:17.521Z,16.97
2022-09-10T07:19:46.314Z,17.11
2022-09-10T07:22:19.265Z,17.17
2022-09-10T07:24:49.686Z,17.07
2022-09-10T07:27:30.760Z,16.97
2022-09-10T07:30:01.342Z,17.08
2022-09-10T07:32:29.833Z,17.11
2022-09-10T07:34:58.074Z,17.27
2022-09-10T07:37:26.217Z,17.33
2022-09-10T07:40:08.312Z,17.19
2022-09-10T07:42:37.627Z,17.27
2022-09-10T07:45:06.046Z,17.34
2022-09-10T07:47:33.617Z,17.50
2022-09-10T07:50:00.996Z,17.51
2022-09-10T07:52:29.051Z,17.74
2022-09-10T07:54:58.043Z,17.59
2022-09-10T07:57:26.135Z,17.49
2022-09-10T08:00:02.211Z,17.50
2022-09-10T08:02:33.665Z,17.38
2022-09-10T08:05:01.367Z,17.32
2022-09-10T08:07:29.520Z,17.45
2022-09-10T08:10:10.026Z,17.49
2022-09-10T08:12:39.758Z,17.54
2022-09-10T08:15:09.542Z,17.60
2022-09-10T08:17:38.961Z,17.49
2022-09-10T08:20:08.855Z,17.47
2022-09-10T08:22:36.220Z,17.36
2022-09-10T08:25:08.011Z,17.43
2022-09-10T08:27:38.704Z,17.60
2022-09-10T08:30:06.953Z,17.76
2022-09-10T08:32:36.336Z,17.90
2022-09-10T08:35:06.101Z,17.77
2022-09-10T08:37:34.124Z,17.70
2022-09-10T08:40:05.920Z,17.77
2022-09-10T08:42:41.746Z,17.99
2022-09-10T08:45:16.064Z,17.99
2022-09-10T08:48:02.733Z,18.19
2022-09-10T08:50:40.442Z,18.35
2022-09-10T08:53:53.809Z,18.34
2022-09-10T08:56:23.578Z,18.23
2022-09-10T08:59:25.792Z,18.34
2022-09-10T09:01:59.742Z,18.60
2022-09-10T09:04:44.329Z,18.53
2022-09-10T09:07:20.302Z,18.55
2022-09-10T09:09:51.776Z,18.93
2022-09-10T09:12:45.985Z,18.87
2022-09-10T09:15:30.677Z,19.04
2022-09-10T09:18:31.804Z,19.22
2022-09-10T09:21:10.613Z,18.79
2022-09-10T09:24:13.510Z,18.88
2022-09-10T09:26:47.661Z,18.77
2022-09-10T09:29:19.776Z,19.02
2022-09-10T09:31:52.412Z,19.44
2022-09-10T09:34:28.275Z,18.97
2022-09-10T09:37:01.131Z,18.83
2022-09-10T09:39:45.931Z,19.07
2022-09-10T09:42:30.272Z,19.12
2022-09-10T09:45:07.874Z,18.91
2022-09-10T09:47:36.976Z,18.97
2022-09-10T09:50:04.210Z,19.13
2022-09-10T09:52:32.592Z,19.31
2022-09-10T09:55:14.764Z,19.43
2022-09-10T09:57:43.205Z,19.64
2022-09-10T10:00:36.823Z,19.76
2022-09-10T10:03:18.740Z,20.11
2022-09-10T10:05:47.130Z,20.12
2022-09-10T10:08:33.832Z,19.91
2022-09-10T10:11:01.299Z,20.15
2022-09-10T10:13:51.791Z,20.81
2022-09-10T10:16:27.236Z,21.34
2022-09-10T10:19:00.308Z,21.57
2022-09-10T10:21:33.102Z,21.99
2022-09-10T10:24:01.390Z,22.07
2022-09-10T10:26:35.210Z,22.94
2022-09-10T10:29:06.761Z,24.15
2022-09-10T10:31:43.362Z,25.13
2022-09-10T10:34:15.531Z,26.19
2022-09-10T10:37:03.625Z,26.85
2022-09-10T10:39:48.793Z,26.91
2022-09-10T10:42:23.685Z,26.79
2022-09-10T10:45:16.651Z,26.26
2022-09-10T10:48:04.082Z,24.65
2022-09-10T10:50:36.355Z,24.05
2022-09-10T10:53:22.863Z,23.19
2022-09-10T10:56:26.271Z,23.39
2022-09-10T10:59:09.841Z,23.52
2022-09-10T11:01:54.162Z,22.87
2022-09-10T11:04:51.919Z,22.72
2022-09-10T11:07:29.781Z,23.13
2022-09-10T11:10:46.710Z,23.79
2022-09-10T11:13:21.319Z,24.26
2022-09-10T11:16:01.898Z,25.11
2022-09-10T11:18:54.342Z,26.08
2022-09-10T11:21:40.582Z,26.39
2022-09-10T11:24:17.424Z,26.10
2022-09-10T11:26:51.384Z,25.67
2022-09-10T11:29:57.218Z,25.22
2022-09-10T11:32:34.891Z,24.97
2022-09-10T11:35:48.450Z,25.59
2022-09-10T11:38:29.757Z,26.48
2022-09-10T11:41:18.799Z,27.29
2022-09-10T11:44:36.443Z,27.55
2022-09-10T11:47:31.810Z,28.06
2022-09-10T11:50:11.937Z,28.55
2022-09-10T11:52:41.045Z,28.19
2022-09-10T11:55:16.181Z,27.55
2022-09-10T11:58:02.708Z,26.11
2022-09-10T12:00:35.804Z,25.06
2022-09-10T12:03:22.460Z,25.08
2022-09-10T12:06:29.661Z,25.13
2022-09-10T12:09:05.540Z,25.31
2022-09-10T12:11:57.715Z,24.92
2022-09-10T12:14:25.745Z,24.31
2022-09-10T12:16:58.539Z,24.11
2022-09-10T12:19:31.682Z,23.56
2022-09-10T12:22:04.761Z,24.18
2022-09-10T12:24:39.696Z,24.29
2022-09-10T12:27:19.061Z,24.69
2022-09-10T12:29:46.184Z,24.77
2022-09-10T12:32:28.867Z,24.76
2022-09-10T12:35:38.290Z,25.01
2022-09-10T12:38:49.002Z,25.06
2022-09-10T12:41:24.855Z,25.00
2022-09-10T12:43:57.614Z,25.06
2022-09-10T12:46:27.372Z,25.15
2022-09-10T12:48:55.654Z,24.73
2022-09-10T12:51:46.503Z,25.07
2022-09-10T12:54:20.614Z,25.87
2022-09-10T12:57:52.107Z,25.66
2022-09-10T13:00:26.308Z,25.40
2022-09-10T13:03:11.641Z,24.69
2022-09-10T13:05:44.504Z,24.46
2022-09-10T13:08:51.111Z,24.29
2022-09-10T13:11:25.101Z,23.36
2022-09-10T13:13:59.486Z,23.04
2022-09-10T13:16:29.716Z,23.34
2022-09-10T13:19:19.812Z,23.73
2022-09-10T13:21:51.296Z,23.23
2022-09-10T13:24:38.777Z,22.73
2022-09-10T13:27:44.323Z,22.50
2022-09-10T13:30:11.426Z,21.99
2022-09-10T13:33:02.804Z,21.82
2022-09-10T13:35:56.090Z,21.42
2022-09-10T13:39:05.531Z,21.27
2022-09-10T13:41:44.455Z,21.27
2022-09-10T13:44:45.690Z,21.45
2022-09-10T13:47:24.535Z,21.26
2022-09-10T13:50:14.523Z,21.20
2022-09-10T13:52:45.623Z,21.89
2022-09-10T13:55:32.768Z,22.31
2022-09-10T13:58:09.614Z,22.63
2022-09-10T14:00:50.353Z,22.97
2022-09-10T14:03:23.138Z,23.00
2022-09-10T14:05:54.625Z,23.10
2022-09-10T14:08:34.410Z,22.32
2022-09-10T14:11:01.465Z,22.83
2022-09-10T14:13:56.574Z,23.20
2022-09-10T14:16:30.432Z,23.07
2022-09-10T14:19:02.148Z,23.30
2022-09-10T14:21:29.738Z,22.62
2022-09-10T14:24:02.084Z,22.50
2022-09-10T14:26:33.800Z,22.67
2022-09-10T14:29:21.217Z,23.64
2022-09-10T14:31:48.993Z,24.30
2022-09-10T14:34:32.556Z,24.35
2022-09-10T14:37:38.444Z,24.64
2022-09-10T14:40:17.771Z,24.92
2022-09-10T14:42:49.154Z,25.65
2022-09-10T14:45:38.162Z,26.60
2022-09-10T14:48:41.365Z,27.38
2022-09-10T14:51:25.927Z,27.37
2022-09-10T14:53:59.304Z,27.08
2022-09-10T14:56:39.590Z,26.33
2022-09-10T14:59:18.500Z,25.45
2022-09-10T15:01:48.780Z,25.87
2022-09-10T15:04:19.746Z,26.41
2022-09-10T15:06:47.919Z,25.87
2022-09-10T15:09:17.848Z,25.17
2022-09-10T15:12:07.862Z,24.32
2022-09-10T15:14:37.161Z,23.74
2022-09-10T15:17:06.249Z,23.25
2022-09-10T15:19:39.294Z,22.94
2022-09-10T15:22:06.356Z,22.87
2022-09-10T15:24:42.754Z,22.81
2022-09-10T15:27:22.022Z,22.84
2022-09-10T15:29:51.351Z,22.81
2022-09-10T15:32:19.497Z,22.82
2022-09-10T15:34:46.627Z,22.78
2022-09-10T15:37:15.822Z,22.66
2022-09-10T15:39:51.653Z,22.52
2022-09-10T15:42:18.808Z,22.48
2022-09-10T15:44:53.201Z,22.46
2022-09-10T15:47:21.220Z,22.31
2022-09-10T15:49:53.117Z,22.52
2022-09-10T15:52:20.201Z,23.12
2022-09-10T15:54:48.400Z,23.55
2022-09-10T15:57:17.405Z,23.63
2022-09-10T15:59:50.623Z,23.47
2022-09-10T16:02:18.717Z,23.13
2022-09-10T16:04:46.742Z,22.33
2022-09-10T16:07:14.739Z,21.73
2022-09-10T16:09:43.818Z,21.17
2022-09-10T16:12:12.805Z,21.04
2022-09-10T16:14:40.975Z,20.90
2022-09-10T16:17:15.790Z,20.86
2022-09-10T16:19:51.697Z,20.77
2022-09-10T16:22:20.807Z,20.36
2022-09-10T16:24:53.007Z,19.91
2022-09-10T16:27:21.031Z,19.72
2022-09-10T16:29:50.597Z,19.30
2022-09-10T16:32:18.631Z,18.84
2022-09-10T16:34:47.658Z,18.70
2022-09-10T16:37:17.610Z,18.75
2022-09-10T16:39:44.874Z,18.79
2022-09-10T16:42:11.925Z,18.73
2022-09-10T16:44:39.612Z,18.64
2022-09-10T16:47:16.933Z,18.32
2022-09-10T16:49:45.139Z,18.14
2022-09-10T16:52:15.349Z,18.09
2022-09-10T16:54:48.663Z,18.03
2022-09-10T16:57:39.343Z,18.28
2022-09-10T17:00:10.633Z,18.28
2022-09-10T17:02:41.265Z,17.94
2022-09-10T17:05:09.997Z,17.89
2022-09-10T17:07:42.803Z,17.72
2022-09-10T17:10:10.419Z,17.50
2022-09-10T17:12:43.991Z,17.40
2022-09-10T17:15:14.291Z,17.24
2022-09-10T17:17:42.550Z,17.38
2022-09-10T17:20:11.814Z,17.42
2022-09-10T17:22:39.787Z,16.97
2022-09-10T17:25:07.110Z,16.79
2022-09-10T17:27:36.179Z,16.73
2022-09-10T17:30:03.416Z,16.75
2022-09-10T17:32:34.674Z,16.87
2022-09-10T17:35:06.242Z,16.95
2022-09-10T17:37:41.644Z,17.01
2022-09-10T17:40:49.445Z,17.08
2022-09-10T17:43:25.510Z,17.32
2022-09-10T17:46:05.863Z,17.47
2022-09-10T17:48:49.642Z,17.52
2022-09-10T17:51:26.421Z,17.13
2022-09-10T17:53:55.513Z,17.16
2022-09-10T17:56:26.736Z,17.09
2022-09-10T17:59:02.852Z,16.98
2022-09-10T18:01:39.273Z,17.01
2022-09-10T18:04:29.452Z,16.86
2022-09-10T18:07:05.548Z,16.65
2022-09-10T18:09:33.684Z,16.71
2022-09-10T18:12:02.517Z,16.69
2022-09-10T18:14:30.028Z,16.31
2022-09-10T18:16:59.068Z,16.06
2022-09-10T18:19:27.138Z,16.26
2022-09-10T18:22:02.609Z,16.19
2022-09-10T18:25:13.464Z,16.02
2022-09-10T18:27:54.101Z,16.01
2022-09-10T18:30:22.621Z,15.84
2022-09-10T18:32:53.040Z,15.59
2022-09-10T18:35:21.004Z,15.44
2022-09-10T18:37:52.383Z,15.39
2022-09-10T18:40:20.137Z,15.25
2022-09-10T18:43:02.803Z,15.29
2022-09-10T18:45:38.478Z,15.42
2022-09-10T18:48:17.470Z,15.30
2022-09-10T18:50:52.960Z,15.52
2022-09-10T18:53:23.835Z,15.43
2022-09-10T18:55:56.355Z,15.47
2022-09-10T18:58:25.763Z,15.64
2022-09-10T19:00:58.539Z,15.82
2022-09-10T19:03:46.945Z,16.01
2022-09-10T19:06:23.643Z,15.99
2022-09-10T19:09:05.524Z,15.65
2022-09-10T19:11:49.759Z,15.71
2022-09-10T19:14:22.701Z,15.86
2022-09-10T19:16:51.906Z,15.97
2022-09-10T19:19:32.493Z,15.80
2022-09-10T19:22:11.180Z,15.79
2022-09-10T19:24:55.021Z,15.86
2022-09-10T19:27:24.817Z,15.63
2022-09-10T19:29:59.279Z,15.63
2022-09-10T19:32:50.979Z,15.54
2022-09-10T19:35:36.142Z,15.47
2022-09-10T19:38:21.074Z,15.34
2022-09-10T19:40:51.835Z,14.90
2022-09-10T19:43:35.072Z,14.67
2022-09-10T19:46:08.359Z,14.69
2022-09-10T19:49:13.787Z,14.92
2022-09-10T19:51:57.599Z,14.84
2022-09-10T19:54:28.818Z,14.69
2022-09-10T19:57:07.471Z,14.61
2022-09-10T19:59:41.763Z,14.57
2022-09-10T20:02:13.782Z,14.39
2022-09-10T20:05:09.598Z,14.37
2022-09-10T20:07:50.779Z,14.36
2022-09-10T20:10:18.286Z,14.48
2022-09-10T20:12:45.800Z,14.52
2022-09-10T20:15:25.695Z,14.33
2022-09-10T20:17:53.378Z,14.44
2022-09-10T20:20:21.863Z,14.62
2022-09-10T20:22:50.942Z,14.82
2022-09-10T20:26:03.447Z,14.61
2022-09-10T20:28:31.515Z,14.47
2022-09-10T20:30:59.777Z,14.45
2022-09-10T20:33:37.853Z,14.51
2022-09-10T20:36:08.991Z,14.47
2022-09-10T20:38:44.409Z,14.49
2022-09-10T20:41:17.454Z,14.25
2022-09-10T20:43:54.535Z,14.31
2022-09-10T20:46:23.130Z,14.51
2022-09-10T20:49:21.958Z,14.63
2022-09-10T20:51:50.043Z,14.48
2022-09-10T20:54:35.598Z,14.28
2022-09-10T20:57:02.643Z,14.33
2022-09-10T20:59:31.025Z,14.35
2022-09-10T21:01:59.284Z,14.47
2022-09-10T21:04:43.809Z,14.63
2022-09-10T21:08:15.217Z,14.75
2022-09-10T21:10:44.398Z,14.49
2022-09-10T21:13:17.803Z,14.45
2022-09-10T21:15:47.933Z,14.50
2022-09-10T21:18:50.835Z,14.56
2022-09-10T21:21:29.281Z,14.62
2022-09-10T21:24:10.755Z,14.61
2022-09-10T21:26:46.583Z,14.58
2022-09-10T21:29:20.236Z,14.59
2022-09-10T21:31:48.250Z,14.67
2022-09-10T21:34:17.749Z,14.90
2022-09-10T21:37:14.379Z,14.93
2022-09-10T21:39:45.441Z,14.97
2022-09-10T21:42:12.559Z,14.87
2022-09-10T21:44:39.642Z,14.94
2022-09-10T21:47:14.944Z,15.02
2022-09-10T21:49:51.371Z,15.04
2022-09-10T21:52:55.632Z,15.02
2022-09-10T21:55:32.720Z,14.83
2022-09-10T21:58:11.222Z,14.73
2022-09-10T22:00:38.371Z,14.81
2022-09-10T22:03:13.177Z,14.74
2022-09-10T22:05:41.159Z,14.88
2022-09-10T22:08:09.499Z,14.81
2022-09-10T22:10:44.161Z,14.73
2022-09-10T22:13:12.139Z,14.63
2022-09-10T22:15:45.359Z,14.61
2022-09-10T22:18:13.582Z,14.51
2022-09-10T22:21:11.607Z,14.49
2022-09-10T22:23:39.502Z,14.58
2022-09-10T22:26:08.176Z,14.35
2022-09-10T22:28:36.510Z,14.40
2022-09-10T22:31:12.019Z,14.35
2022-09-10T22:33:41.230Z,14.23
2022-09-10T22:36:16.153Z,14.26
2022-09-10T22:38:43.679Z,14.14
2022-09-10T22:41:29.757Z,14.22
2022-09-10T22:43:58.982Z,14.20
2022-09-10T22:46:27.527Z,13.95
2022-09-10T22:49:02.292Z,13.88
2022-09-10T22:51:35.232Z,13.74
2022-09-10T22:54:39.256Z,13.71
2022-09-10T22:57:13.350Z,13.70
2022-09-10T22:59:42.532Z,13.67
2022-09-10T23:02:17.539Z,13.60
2022-09-10T23:04:52.402Z,13.63
2022-09-10T23:07:20.512Z,13.74
2022-09-10T23:09:50.567Z,13.80
2022-09-10T23:12:22.498Z,13.92
2022-09-10T23:15:02.927Z,13.91
2022-09-10T23:17:30.873Z,13.79
2022-09-10T23:20:07.653Z,13.72
2022-09-10T23:22:35.596Z,13.64
2022-09-10T23:25:02.778Z,13.53
2022-09-10T23:27:45.217Z,13.63
2022-09-10T23:30:16.355Z,13.73
2022-09-10T23:32:44.242Z,13.63
2022-09-10T23:35:13.231Z,13.51
2022-09-10T23:37:44.491Z,13.64
2022-09-10T23:40:19.553Z,13.56
2022-09-10T23:42:57.943Z,13.63
2022-09-10T23:45:26.080Z,13.66
2022-09-10T23:48:05.349Z,13.70
2022-09-10T23:50:33.592Z,13.64
2022-09-10T23:53:06.431Z,13.76
2022-09-10T23:55:40.612Z,13.64
2022-09-10T23:58:30.238Z,13.68
